Dernières infos :  

11/11/2018  Mise à jour des tableaux d'analyses décadaires : rubrique climatologie
04/1/2018 Mise en ligne de la synthèse climatologique d'OCTOBRE 2018 : 
CLIQUEZ ICI
2/11/2018  Mise à jour des tableaux d'analyses décadaires, mensuelles et annuelles : rubrique climatologie   

Si l'entête du tableau ne s'affiche pas correctement, => actualisez la page (F5 avec Internet Explorer, Chrome...).
Utilisez l'ascenseur sur la droite des lignes du tableau pour faire défiler verticalement les jours du mois.

TABLEAU DES DONNEES COMPLETES NOAA de JUIN 2018

DATE TEMPERATURE
sous abri
TEMPARATURE 
au sol
VENT  et  Indice de Refroidissement Eolien  PRECIPITATIONS (en mm/m2)
et Intensité
PRESSION ATMOSPHERIQUE (en hPa) HUMIDITE de l'AIR RADIATIONS SOLAIRES (en W/m2)
Mini Moy. Maxi Mini Moy. Maxi Moyen Rafale I.R.E.
Minii
Précip. jour Cumul mois Intensité Maxi Mini Moy. Maxi Mini Moy. Maxi Pic maxi du jour Total jour
01/06/18 14.1° 18.9° 23.6° 12.8° 19.5° 28.9° 4.2km/h dir ESE 22.5km/h dir ONO 14.1° 0 0 1017.7 1018.8 1019.8 60% 80.8% 94% 1246 73 646
02/06/18 13.2° 19.9° 26.2° 11.7° 20.5° 30.6° 4.5km/h dir ONO 20.9km/h dir O 13.2° 0 0 1015.2 1017.5 1019.2 55% 78.6% 96% 984 86 853
03/06/18 15.6° 19.9° 27.6° 14.4° 20.5° 32.8° 3.7km/h dir SO 33.8km/h dir ENE 15.6° 12.8 12.8 71.6mm/h 1011.8 1014.3 1016 59% 83.7% 94% 1146 65 110
04/06/18 15.8° 20.4° 25.7° 15.6° 21.2° 30.6° 3.4km/h dir ENE 24.1km/h dir SO 15.8° 0 12.8 1007.5 1009.9 1013.1 59% 81.1% 96% 988 70 952
05/06/18 17.2° 21.4° 26.7° 16.7° 22.2° 32.2° 4.2km/h dir SSE 20.9km/h dir SSE 17.2° 4.4 17.2 5.4mm/h 1006.5 1008.8 1010.2 59% 80.1% 94% 1099 69 682
06/06/18 15.9° 20.1° 25.6° 15° 20° 28.9° 5.1km/h dir SE 27.4km/h dir ESE 15.9° 0.4 17.6 3.4mm/h 1008.8 1010.7 1013.7 62% 81.8% 95% 946 50 228
07/06/18 16.1° 20.2° 25.6° 15° 20.8° 30.6° 5km/h dir SSE 27.4km/h dir O 16.1° 0 17.6 1012 1013.7 1015 63% 81.3% 92% 1151 66 472
08/06/18 16.9° 20° 24.2° 16.7° 20.4° 30.6° 3.4km/h dir SE 14.5km/h dir E 16.9° 6.8 24.4 8mm/h 1010.2 1011.9 1013.8 72% 88% 96% 1150 45 208
09/06/18 16.2° 22.4° 28.9° 15.6° 22.9° 33.3° 3.2km/h dir SSE 14.5km/h dir SSE 16.2° 0.2 24.6 1009.6 1011.1 1012.3 55% 79.9% 96% 1025 81 767
10/06/18 17.4° 22.1° 28.8° 16.1° 22.1° 31.7° 6.4km/h dir SSE 69.2km/h dir O 16.2° 9 33.6 411.4mm/h 1007.8 1010.1 1011.5 47% 74.8% 95% 997 69 840
11/06/18 17.2° 19.4° 25.9° 16.7° 20° 30.6° 3.5km/h dir SSE 29km/h dir SSE 17.3° 12 45.6 62.6mm/h 1006.7 1009 1011.4 66% 89.5% 96% 1039 46 082
12/06/18 15.6° 19.4° 24° 14.4° 20.4° 28.3° 5.3km/h dir ONO 25.7km/h dir N 15.6° 0.6 46.2 3.6mm/h 1006.8 1008.7 1009.8 61% 82.1% 96% 1109 70 943
13/06/18 14.4° 17.2° 20.5° 12.8° 17.3° 23.3° 12.4km/h dir ONO 32.2km/h dir NO 12.6° 0 46.2 1008.8 1011.9 1015.2 60% 78.4% 89% 789 33 991
14/06/18 10.3° 16.6° 22.4° 8.9° 17.3° 26.1° 7.6km/h dir ONO 29km/h dir N 10.3° 0 46.2 1014.5 1015.2 1016.1 52% 75.4% 94% 1137 85 246
15/06/18 14.5° 19.4° 24.7° 13.9° 20.1° 28.9° 9km/h dir ONO 29km/h dir ONO 14.5° 0 46.2 1013.8 1014.8 1016 53% 72.8% 90% 1088 77 433
16/06/18 12.9° 20.3° 26.3° 11.1° 20.6° 30.6° 5.6km/h dir ONO 22.5km/h dir O 12.9° 0 46.2 1013.8 1014.7 1016.1 50% 74.3% 96% 974 81 597
17/06/18 14.8° 19.1° 22.1° 12.8° 19.3° 26.7° 6.9km/h dir ONO 29km/h dir O 14.8° 0 46.2 1016.1 1018.7 1021.2 62% 76.2% 91% 1063 66 904
18/06/18 11.2° 18.5° 24.4° 9.4° 19.2° 28.9° 6.6km/h dir ONO 30.6km/h dir O 11.2° 0 46.2 1021.2 1022.2 1023.3 51% 74.8% 95% 1000 90 042
19/06/18 13.7° 21.4° 27.7° 11.7° 21.9° 31.1° 8.4km/h dir ONO 30.6km/h dir ONO 13.7° 0 46.2 1019.3 1021.9 1023.8 56% 73.6% 95% 868 90 960
20/06/18 15.4° 22.1° 30.3° 12.8° 22.4° 33.9° 3.2km/h dir ONO 12.9km/h dir N 15.4° 0 46.2 1016.4 1018.6 1020.3 43% 75.5% 95% 1009 78 893
21/06/18 14.8° 22.7° 29.8° 13.3° 23.2° 34.4° 6.8km/h dir NNE 38.6km/h dir N 14.8° 0 46.2 1015.4 1016.8 1019.6 43% 72% 95% 967 84 307
22/06/18 11.5° 17.1° 22.1° 10.6° 17.6° 25° 18.2km/h dir N 48.3km/h dir N 8.8° 0 46.2 1019.5 1021.4 1023.2 43% 59.1% 73% 902 93 415
23/06/18 10.1° 17.3° 23.7° 8.9° 18° 27.2° 11.3km/h dir N 32.2km/h dir N 0 46.2 1020.1 1021.8 1023.2 43% 61.9% 85% 877 92 099
24/06/18 13.1° 18.7° 24.3° 12.2° 19.5° 27.8° 9km/h dir N 30.6km/h dir N 12.7° 0 46.2 1016.9 1018.6 1020.3 43% 64.1% 82% 930 86 104
25/06/18 11.8° 19.6° 25.7° 10° 19.9° 28.9° 11.7km/h dir N 38.6km/h dir NO 11.8° 0 46.2 1017 1018 1019 49% 64.6% 87% 861 90 596
26/06/18 12.7° 21.3° 28.7° 10.6° 21.9° 32.2° 8.2km/h dir N 32.2km/h dir ONO 12.7° 0 46.2 1016.6 1018.2 1019.6 39% 63.4% 89% 867 91 634
27/06/18 14.2° 22.2° 28.9° 11.7° 22.3° 32.2° 9.3km/h dir NNE 40.2km/h dir NO 14.2° 0 46.2 1012.8 1015.4 1017.5 42% 65.1% 92% 868 91 355
28/06/18 14.4° 21.8° 27.8° 12.8° 22.1° 30.6° 13.5km/h dir N 46.7km/h dir N 14.4° 0 46.2 1009.3 1011.7 1013.6 39% 57.6% 83% 870 91 452
29/06/18 14.1° 22.3° 29.4° 11.7° 22.5° 32.8° 4.3km/h dir NNE 20.9km/h dir NNE 14.2° 0 46.2 1009.9 1010.9 1011.9 45% 62.7% 85% 870 88 558
30/06/18 15.3° 24.8° 33.3° 13.3° 24.6° 36.7° 2.7km/h dir E 14.5km/h dir O 15.3° 0 46.2 1007.4 1009.6 1011.1 38% 66% 94% 868 89 497

RETOUR ACCUEIL


Date de création : 01/07/2018 : 22:38
Catégorie : ANNEE 2018 - MOIS PASSES - JUIN 2018
Page lue 148 fois


Réactions à cet article

Personne n'a encore laissé de commentaire.
Soyez donc le premier !